createdAt,value
2023-07-27T00:00:32.946Z,14.83
2023-07-27T00:03:01.040Z,14.80
2023-07-27T00:05:30.146Z,14.80
2023-07-27T00:07:58.253Z,14.85
2023-07-27T00:10:26.171Z,14.78
2023-07-27T00:12:55.391Z,14.68
2023-07-27T00:15:23.192Z,14.68
2023-07-27T00:17:50.974Z,14.66
2023-07-27T00:20:19.189Z,14.61
2023-07-27T00:22:48.266Z,14.60
2023-07-27T00:25:16.238Z,14.57
2023-07-27T00:27:43.915Z,14.46
2023-07-27T00:30:12.565Z,14.48
2023-07-27T00:32:40.316Z,14.43
2023-07-27T00:35:09.177Z,14.42
2023-07-27T00:37:36.897Z,14.31
2023-07-27T00:40:07.536Z,14.28
2023-07-27T00:42:35.300Z,14.27
2023-07-27T00:45:03.363Z,14.27
2023-07-27T00:47:31.171Z,14.23
2023-07-27T00:49:59.167Z,14.15
2023-07-27T00:52:26.879Z,14.13
2023-07-27T00:54:58.282Z,14.09
2023-07-27T00:57:27.534Z,14.07
2023-07-27T00:59:55.902Z,14.02
2023-07-27T01:02:23.707Z,13.97
2023-07-27T01:04:52.364Z,13.94
2023-07-27T01:07:20.103Z,13.93
2023-07-27T01:09:48.256Z,13.92
2023-07-27T01:12:22.351Z,13.86
2023-07-27T01:15:07.900Z,13.82
2023-07-27T01:17:41.860Z,13.82
2023-07-27T01:20:20.366Z,13.81
2023-07-27T01:23:34.027Z,13.71
2023-07-27T01:26:20.807Z,13.64
2023-07-27T01:29:03.299Z,13.58
2023-07-27T01:31:42.642Z,13.55
2023-07-27T01:34:16.824Z,13.46
2023-07-27T01:36:46.999Z,13.42
2023-07-27T01:39:18.151Z,13.40
2023-07-27T01:41:47.752Z,13.34
2023-07-27T01:44:16.875Z,13.30
2023-07-27T01:46:48.628Z,13.29
2023-07-27T01:49:16.277Z,13.25
2023-07-27T01:51:45.292Z,13.24
2023-07-27T01:54:14.804Z,13.23
2023-07-27T01:56:43.237Z,13.22
2023-07-27T01:59:12.811Z,13.23
2023-07-27T02:01:44.135Z,13.19
2023-07-27T02:04:14.304Z,13.20
2023-07-27T02:06:42.077Z,13.20
2023-07-27T02:09:10.091Z,13.19
2023-07-27T02:11:41.324Z,13.07
2023-07-27T02:14:18.314Z,12.96
2023-07-27T02:16:51.553Z,12.94
2023-07-27T02:19:26.337Z,12.95
2023-07-27T02:21:56.590Z,12.98
2023-07-27T02:24:26.016Z,12.90
2023-07-27T02:26:53.709Z,12.73
2023-07-27T02:29:21.475Z,12.73
2023-07-27T02:31:49.546Z,12.72
2023-07-27T02:34:17.601Z,12.78
2023-07-27T02:36:46.968Z,12.81
2023-07-27T02:39:14.756Z,12.76
2023-07-27T02:41:42.778Z,12.75
2023-07-27T02:44:10.466Z,12.77
2023-07-27T02:46:38.565Z,12.75
2023-07-27T02:49:06.264Z,12.80
2023-07-27T02:51:34.395Z,12.94
2023-07-27T02:54:03.457Z,12.86
2023-07-27T02:56:31.759Z,12.76
2023-07-27T02:58:59.510Z,12.68
2023-07-27T03:01:27.270Z,12.57
2023-07-27T03:03:55.291Z,12.63
2023-07-27T03:06:23.046Z,12.64
2023-07-27T03:08:51.049Z,12.58
2023-07-27T03:11:20.212Z,12.56
2023-07-27T03:13:48.190Z,12.59
2023-07-27T03:16:15.965Z,12.60
2023-07-27T03:18:44.006Z,12.55
2023-07-27T03:21:11.960Z,12.54
2023-07-27T03:23:40.062Z,12.51
2023-07-27T03:26:12.211Z,12.48
2023-07-27T03:28:44.394Z,12.43
2023-07-27T03:31:17.827Z,12.34
2023-07-27T03:33:45.828Z,12.43
2023-07-27T03:36:13.617Z,12.47
2023-07-27T03:38:41.613Z,12.50
2023-07-27T03:41:09.350Z,12.55
2023-07-27T03:43:37.440Z,12.53
2023-07-27T03:46:06.592Z,12.54
2023-07-27T03:48:34.994Z,12.55
2023-07-27T03:51:03.008Z,12.48
2023-07-27T03:53:32.881Z,12.48
2023-07-27T03:56:02.421Z,12.46
2023-07-27T03:58:30.919Z,12.45
2023-07-27T04:00:58.711Z,12.42
2023-07-27T04:03:28.258Z,12.39
2023-07-27T04:05:56.011Z,12.42
2023-07-27T04:08:24.032Z,12.41
2023-07-27T04:10:51.805Z,12.41
2023-07-27T04:13:19.955Z,12.37
2023-07-27T04:15:47.607Z,12.38
2023-07-27T04:18:15.800Z,12.46
2023-07-27T04:20:44.917Z,12.45
2023-07-27T04:23:12.675Z,12.39
2023-07-27T04:25:40.734Z,12.33
2023-07-27T04:28:08.428Z,12.35
2023-07-27T04:30:36.982Z,12.38
2023-07-27T04:33:04.711Z,12.43
2023-07-27T04:35:32.778Z,12.40
2023-07-27T04:38:01.825Z,12.36
2023-07-27T04:40:29.768Z,12.32
2023-07-27T04:42:57.590Z,12.31
2023-07-27T04:45:25.643Z,12.33
2023-07-27T04:47:53.458Z,12.51
2023-07-27T04:50:21.514Z,12.58
2023-07-27T04:52:49.223Z,12.51
2023-07-27T04:55:18.797Z,12.60
2023-07-27T04:57:46.554Z,12.62
2023-07-27T05:00:15.155Z,12.66
2023-07-27T05:02:42.899Z,12.79
2023-07-27T05:05:11.267Z,12.86
2023-07-27T05:07:39.032Z,12.93
2023-07-27T05:10:07.554Z,12.97
2023-07-27T05:12:36.581Z,12.95
2023-07-27T05:15:04.761Z,12.98
2023-07-27T05:17:32.545Z,13.05
2023-07-27T05:20:00.587Z,13.09
2023-07-27T05:22:28.517Z,13.15
2023-07-27T05:24:56.479Z,13.30
2023-07-27T05:27:24.177Z,13.28
2023-07-27T05:29:53.795Z,13.33
2023-07-27T05:32:21.614Z,13.43
2023-07-27T05:34:49.474Z,13.53
2023-07-27T05:37:17.516Z,13.53
2023-07-27T05:39:45.270Z,13.56
2023-07-27T05:42:13.360Z,13.58
2023-07-27T05:44:41.048Z,13.65
2023-07-27T05:47:10.345Z,13.74
2023-07-27T05:49:38.012Z,13.76
2023-07-27T05:52:06.978Z,13.83
2023-07-27T05:54:34.694Z,13.92
2023-07-27T05:57:02.743Z,14.07
2023-07-27T05:59:30.532Z,14.02
2023-07-27T06:01:58.609Z,14.15
2023-07-27T06:04:28.735Z,14.22
2023-07-27T06:06:57.498Z,14.23
2023-07-27T06:09:25.200Z,14.30
2023-07-27T06:11:53.572Z,14.37
2023-07-27T06:14:21.329Z,14.46
2023-07-27T06:16:49.060Z,14.60
2023-07-27T06:19:17.135Z,14.67
2023-07-27T06:21:46.208Z,14.73
2023-07-27T06:24:14.367Z,14.83
2023-07-27T06:26:42.125Z,14.91
2023-07-27T06:29:10.367Z,15.00
2023-07-27T06:31:38.140Z,15.02
2023-07-27T06:34:06.320Z,15.15
2023-07-27T06:36:35.038Z,15.24
2023-07-27T06:39:06.528Z,15.22
2023-07-27T06:41:34.286Z,15.26
2023-07-27T06:44:02.313Z,15.31
2023-07-27T06:46:30.043Z,15.33
2023-07-27T06:48:58.270Z,15.34
2023-07-27T06:51:26.050Z,15.46
2023-07-27T06:53:54.088Z,15.47
2023-07-27T06:56:23.155Z,15.47
2023-07-27T06:58:51.208Z,15.58
2023-07-27T07:01:18.919Z,15.60
2023-07-27T07:03:46.921Z,15.62
2023-07-27T07:06:14.837Z,15.65
2023-07-27T07:08:42.776Z,15.70
2023-07-27T07:11:10.878Z,15.71
2023-07-27T07:13:40.147Z,15.73
2023-07-27T07:16:08.114Z,15.71
2023-07-27T07:18:36.086Z,15.77
2023-07-27T07:21:03.749Z,15.88
2023-07-27T07:23:31.755Z,15.94
2023-07-27T07:26:00.756Z,15.98
2023-07-27T07:28:28.521Z,16.13
2023-07-27T07:30:59.038Z,16.16
2023-07-27T07:33:26.939Z,16.16
2023-07-27T07:35:54.698Z,16.23
2023-07-27T07:38:22.397Z,16.26
2023-07-27T07:40:50.640Z,16.31
2023-07-27T07:43:18.751Z,16.36
2023-07-27T07:45:46.972Z,16.50
2023-07-27T07:48:16.101Z,16.58
2023-07-27T07:50:44.128Z,16.68
2023-07-27T07:53:18.903Z,16.84
2023-07-27T07:55:51.024Z,16.90
2023-07-27T07:58:18.810Z,16.85
2023-07-27T08:00:47.478Z,16.86
2023-07-27T08:03:16.762Z,16.87
2023-07-27T08:05:44.885Z,16.89
2023-07-27T08:08:12.693Z,16.88
2023-07-27T08:10:40.760Z,16.90
2023-07-27T08:13:08.672Z,16.90
2023-07-27T08:15:36.830Z,16.95
2023-07-27T08:18:05.164Z,16.92
2023-07-27T08:20:34.682Z,16.95
2023-07-27T08:23:02.421Z,16.97
2023-07-27T08:25:30.672Z,16.97
2023-07-27T08:27:58.507Z,16.96
2023-07-27T08:30:26.577Z,17.09
2023-07-27T08:32:54.341Z,17.17
2023-07-27T08:35:22.520Z,17.29
2023-07-27T08:37:51.600Z,17.28
2023-07-27T08:40:19.586Z,17.26
2023-07-27T08:42:48.267Z,17.37
2023-07-27T08:45:16.455Z,17.41
2023-07-27T08:47:45.667Z,17.34
2023-07-27T08:50:15.367Z,17.25
2023-07-27T08:52:43.635Z,17.21
2023-07-27T08:55:13.003Z,17.12
2023-07-27T08:57:41.192Z,17.13
2023-07-27T09:00:10.826Z,17.09
2023-07-27T09:02:40.377Z,17.12
2023-07-27T09:05:10.277Z,17.02
2023-07-27T09:07:38.446Z,17.05
2023-07-27T09:10:08.958Z,17.02
2023-07-27T09:12:38.364Z,17.02
2023-07-27T09:15:13.036Z,17.08
2023-07-27T09:17:41.783Z,17.09
2023-07-27T09:20:12.801Z,17.13
2023-07-27T09:22:41.305Z,17.17
2023-07-27T09:25:09.421Z,17.16
2023-07-27T09:27:45.938Z,17.21
2023-07-27T09:30:14.703Z,17.18
2023-07-27T09:32:42.894Z,17.15
2023-07-27T09:35:15.215Z,17.22
2023-07-27T09:37:46.407Z,17.20
2023-07-27T09:40:16.193Z,17.26
2023-07-27T09:42:47.094Z,17.23
2023-07-27T09:45:16.038Z,17.23
2023-07-27T09:47:44.841Z,17.27
2023-07-27T09:50:12.643Z,17.34
2023-07-27T09:52:41.613Z,17.32
2023-07-27T09:55:09.977Z,17.31
2023-07-27T09:57:38.151Z,17.36
2023-07-27T10:00:09.628Z,17.37
2023-07-27T10:02:37.759Z,17.41
2023-07-27T10:05:06.587Z,17.49
2023-07-27T10:07:48.321Z,17.55
2023-07-27T10:10:36.472Z,17.61
2023-07-27T10:13:08.617Z,17.66
2023-07-27T10:15:43.336Z,17.72
2023-07-27T10:18:15.128Z,17.75
2023-07-27T10:20:43.344Z,17.87
2023-07-27T10:23:13.441Z,17.87
2023-07-27T10:26:08.172Z,17.88
2023-07-27T10:28:40.747Z,17.95
2023-07-27T10:31:26.698Z,18.06
2023-07-27T10:34:07.535Z,18.06
2023-07-27T10:36:51.305Z,18.10
2023-07-27T10:39:20.193Z,18.15
2023-07-27T10:42:00.978Z,18.17
2023-07-27T10:44:29.463Z,18.17
2023-07-27T10:47:00.255Z,18.19
2023-07-27T10:49:28.869Z,18.25
2023-07-27T10:51:58.968Z,18.22
2023-07-27T10:54:27.460Z,18.22
2023-07-27T10:56:55.910Z,18.25
2023-07-27T10:59:24.110Z,18.29
2023-07-27T11:01:52.938Z,18.36
2023-07-27T11:04:23.424Z,18.40
2023-07-27T11:06:51.708Z,18.56
2023-07-27T11:09:19.875Z,18.56
2023-07-27T11:11:51.958Z,18.55
2023-07-27T11:14:19.598Z,18.47
2023-07-27T11:16:48.034Z,18.44
2023-07-27T11:19:16.053Z,18.40
2023-07-27T11:21:45.570Z,18.41
2023-07-27T11:24:17.203Z,18.36
2023-07-27T11:26:45.466Z,18.37
2023-07-27T11:29:13.433Z,18.36
2023-07-27T11:31:41.747Z,18.46
2023-07-27T11:34:10.975Z,18.52
2023-07-27T11:36:39.101Z,18.57
2023-07-27T11:39:09.255Z,18.57
2023-07-27T11:41:48.181Z,18.60
2023-07-27T11:44:17.479Z,18.75
2023-07-27T11:46:48.963Z,18.58
2023-07-27T11:49:17.334Z,18.52
2023-07-27T11:51:47.553Z,18.41
2023-07-27T11:54:24.942Z,18.37
2023-07-27T11:56:54.086Z,18.38
2023-07-27T11:59:22.478Z,18.46
2023-07-27T12:01:52.520Z,18.44
2023-07-27T12:04:21.068Z,18.41
2023-07-27T12:06:50.808Z,18.41
2023-07-27T12:09:18.654Z,18.42
2023-07-27T12:11:48.048Z,18.42
2023-07-27T12:14:16.140Z,18.51
2023-07-27T12:21:50.288Z,18.32
2023-07-27T12:34:25.624Z,18.37
2023-07-27T12:39:24.525Z,18.38
2023-07-27T12:44:24.536Z,18.34
2023-07-27T12:46:52.321Z,18.30
2023-07-27T12:49:20.354Z,18.38
2023-07-27T12:51:48.123Z,18.40
2023-07-27T12:54:16.193Z,18.39
2023-07-27T12:56:43.946Z,18.43
2023-07-27T12:59:13.314Z,18.44
2023-07-27T13:01:41.182Z,18.44
2023-07-27T13:04:09.243Z,18.44
2023-07-27T13:06:37.034Z,18.49
2023-07-27T13:09:06.444Z,18.45
2023-07-27T13:11:34.617Z,18.53
2023-07-27T13:14:03.307Z,18.58
2023-07-27T13:16:34.500Z,18.59
2023-07-27T13:19:02.849Z,18.65
2023-07-27T13:21:30.621Z,18.61
2023-07-27T13:23:58.834Z,18.62
2023-07-27T13:26:26.653Z,18.63
2023-07-27T13:28:54.797Z,18.60
2023-07-27T13:31:24.081Z,18.58
2023-07-27T13:33:53.676Z,18.62
2023-07-27T13:36:21.716Z,18.63
2023-07-27T13:38:49.452Z,18.54
2023-07-27T13:41:17.815Z,18.43
2023-07-27T13:43:45.686Z,18.40
2023-07-27T13:46:13.746Z,18.37
2023-07-27T13:48:41.582Z,18.40
2023-07-27T13:51:11.358Z,18.32
2023-07-27T13:53:39.321Z,18.36
2023-07-27T13:56:07.782Z,18.26
2023-07-27T13:58:35.522Z,18.23
2023-07-27T14:01:03.592Z,18.20
2023-07-27T14:03:31.459Z,18.27
2023-07-27T14:05:59.672Z,18.14
2023-07-27T14:08:28.908Z,18.16
2023-07-27T14:10:57.178Z,18.15
2023-07-27T14:13:24.959Z,18.20
2023-07-27T14:15:53.021Z,18.15
2023-07-27T14:18:20.745Z,18.13
2023-07-27T14:20:49.169Z,18.15
2023-07-27T14:23:16.934Z,18.18
2023-07-27T14:25:47.354Z,18.12
2023-07-27T14:28:15.155Z,18.16
2023-07-27T14:30:47.485Z,18.15
2023-07-27T14:33:20.058Z,18.20
2023-07-27T14:35:48.103Z,18.31
2023-07-27T14:38:15.896Z,18.32
2023-07-27T14:40:43.986Z,18.32
2023-07-27T14:43:13.168Z,18.30
2023-07-27T14:45:41.828Z,18.30
2023-07-27T14:48:10.224Z,18.34
2023-07-27T14:50:40.144Z,18.41
2023-07-27T14:53:08.169Z,18.54
2023-07-27T14:55:36.335Z,18.47
2023-07-27T14:58:04.016Z,18.49
2023-07-27T15:00:36.186Z,18.46
2023-07-27T15:03:06.111Z,18.59
2023-07-27T15:05:34.285Z,18.45
2023-07-27T15:08:02.582Z,18.40
2023-07-27T15:10:32.644Z,18.44
2023-07-27T15:13:01.566Z,18.43
2023-07-27T15:15:30.182Z,18.33
2023-07-27T15:17:59.795Z,18.37
2023-07-27T15:20:27.645Z,18.42
2023-07-27T15:22:56.144Z,18.34
2023-07-27T15:25:23.953Z,18.34
2023-07-27T15:27:52.197Z,18.26
2023-07-27T15:30:20.116Z,18.30
2023-07-27T15:32:48.265Z,18.26
2023-07-27T15:35:17.512Z,18.19
2023-07-27T15:37:45.593Z,18.20
2023-07-27T15:40:13.875Z,18.23
2023-07-27T15:42:41.831Z,18.22
2023-07-27T15:45:10.198Z,18.33
2023-07-27T15:47:38.316Z,18.17
2023-07-27T15:50:07.602Z,18.11
2023-07-27T15:52:37.888Z,18.11
2023-07-27T15:55:06.580Z,18.08
2023-07-27T15:57:34.651Z,18.13
2023-07-27T16:00:02.510Z,18.09
2023-07-27T16:02:30.854Z,18.05
2023-07-27T16:04:58.687Z,17.96
2023-07-27T16:07:27.061Z,17.94
2023-07-27T16:10:00.351Z,17.86
2023-07-27T16:12:28.758Z,17.83
2023-07-27T16:14:57.293Z,17.85
2023-07-27T16:17:27.291Z,17.85
2023-07-27T16:19:56.052Z,17.75
2023-07-27T16:22:24.105Z,17.70
2023-07-27T16:24:53.263Z,17.62
2023-07-27T16:27:23.682Z,17.58
2023-07-27T16:29:51.827Z,17.40
2023-07-27T16:32:19.731Z,17.36
2023-07-27T16:34:47.929Z,17.41
2023-07-27T16:37:15.697Z,17.28
2023-07-27T16:39:43.765Z,17.16
2023-07-27T16:42:11.625Z,17.14
2023-07-27T16:44:41.409Z,17.04
2023-07-27T16:47:09.154Z,16.84
2023-07-27T16:49:37.231Z,16.70
2023-07-27T16:52:05.464Z,16.68
2023-07-27T16:54:33.467Z,16.66
2023-07-27T16:57:01.189Z,16.59
2023-07-27T16:59:29.188Z,16.65
2023-07-27T17:01:58.207Z,16.61
2023-07-27T17:04:26.311Z,16.47
2023-07-27T17:06:53.985Z,16.46
2023-07-27T17:09:22.051Z,16.39
2023-07-27T17:11:49.804Z,16.45
2023-07-27T17:14:17.867Z,16.37
2023-07-27T17:16:48.213Z,16.33
2023-07-27T17:19:19.303Z,16.29
2023-07-27T17:21:47.052Z,16.25
2023-07-27T17:24:15.172Z,16.26
2023-07-27T17:26:42.986Z,16.27
2023-07-27T17:29:10.745Z,16.26
2023-07-27T17:31:39.246Z,16.23
2023-07-27T17:34:07.122Z,16.18
2023-07-27T17:36:36.751Z,16.13
2023-07-27T17:39:05.826Z,16.13
2023-07-27T17:41:35.418Z,16.12
2023-07-27T17:44:03.437Z,16.07
2023-07-27T17:46:31.478Z,16.10
2023-07-27T17:48:59.248Z,16.08
2023-07-27T17:51:27.325Z,16.13
2023-07-27T17:53:56.465Z,16.16
2023-07-27T17:56:24.488Z,16.13
2023-07-27T17:58:52.210Z,16.16
2023-07-27T18:01:20.438Z,16.08
2023-07-27T18:03:48.695Z,16.07
2023-07-27T18:06:16.892Z,16.08
2023-07-27T18:08:44.710Z,16.01
2023-07-27T18:11:15.152Z,16.01
2023-07-27T18:13:43.594Z,16.00
2023-07-27T18:16:12.441Z,16.09
2023-07-27T18:18:40.871Z,16.02
2023-07-27T18:21:12.907Z,15.99
2023-07-27T18:23:41.679Z,16.01
2023-07-27T18:26:09.998Z,16.09
2023-07-27T18:28:39.124Z,16.05
2023-07-27T18:31:07.306Z,15.99
2023-07-27T18:33:35.338Z,15.93
2023-07-27T18:36:12.658Z,15.87
2023-07-27T18:38:42.991Z,15.91
2023-07-27T18:41:11.104Z,15.88
2023-07-27T18:43:42.074Z,15.90
2023-07-27T18:46:10.603Z,15.99
2023-07-27T18:48:38.433Z,15.89
2023-07-27T18:51:06.617Z,15.88
2023-07-27T18:53:34.287Z,15.86
2023-07-27T18:56:02.420Z,15.84
2023-07-27T18:58:30.909Z,15.88
2023-07-27T19:01:00.350Z,15.91
2023-07-27T19:03:28.734Z,15.89
2023-07-27T19:05:56.527Z,15.87
2023-07-27T19:08:24.747Z,15.84
2023-07-27T19:10:52.555Z,15.91
2023-07-27T19:13:20.609Z,15.88
2023-07-27T19:15:49.435Z,15.85
2023-07-27T19:18:19.139Z,15.86
2023-07-27T19:20:46.910Z,15.84
2023-07-27T19:23:14.921Z,15.88
2023-07-27T19:25:44.270Z,15.83
2023-07-27T19:28:13.009Z,15.84
2023-07-27T19:30:41.725Z,15.85
2023-07-27T19:33:11.223Z,15.87
2023-07-27T19:35:41.739Z,15.84
2023-07-27T19:38:10.385Z,15.84
2023-07-27T19:40:38.208Z,15.82
2023-07-27T19:43:06.380Z,15.90
2023-07-27T19:45:34.124Z,15.87
2023-07-27T19:48:02.446Z,15.88
2023-07-27T19:50:30.255Z,15.88
2023-07-27T19:52:59.598Z,15.92
2023-07-27T19:55:27.367Z,15.90
2023-07-27T19:57:55.803Z,15.93
2023-07-27T20:00:24.760Z,15.95
2023-07-27T20:02:53.048Z,15.94
2023-07-27T20:05:20.883Z,15.89
2023-07-27T20:07:48.955Z,15.87
2023-07-27T20:10:18.456Z,15.87
2023-07-27T20:12:46.553Z,15.85
2023-07-27T20:15:14.463Z,15.85
2023-07-27T20:17:42.925Z,15.86
2023-07-27T20:20:12.053Z,15.84
2023-07-27T20:22:40.027Z,15.84
2023-07-27T20:25:08.503Z,15.85
2023-07-27T20:27:37.947Z,15.85
2023-07-27T20:30:06.623Z,15.89
2023-07-27T20:32:34.635Z,15.85
2023-07-27T20:35:02.374Z,15.85
2023-07-27T20:37:30.461Z,15.86
2023-07-27T20:39:58.172Z,15.90
2023-07-27T20:42:25.950Z,15.91
2023-07-27T20:44:56.124Z,15.89
2023-07-27T20:47:24.202Z,15.89
2023-07-27T20:49:52.378Z,15.88
2023-07-27T20:52:20.058Z,15.90
2023-07-27T20:54:48.163Z,15.91
2023-07-27T20:57:15.956Z,15.90
2023-07-27T20:59:44.767Z,15.92
2023-07-27T21:02:14.059Z,15.91
2023-07-27T21:04:42.165Z,15.94
2023-07-27T21:07:09.959Z,15.95
2023-07-27T21:09:38.070Z,15.96
2023-07-27T21:12:06.590Z,15.95
2023-07-27T21:14:34.734Z,15.89
2023-07-27T21:17:02.495Z,15.90
2023-07-27T21:19:31.973Z,15.93
2023-07-27T21:21:59.786Z,15.94
2023-07-27T21:24:28.089Z,15.97
2023-07-27T21:26:55.830Z,15.98
2023-07-27T21:29:23.601Z,15.97
2023-07-27T21:31:51.680Z,16.01
2023-07-27T21:34:19.392Z,16.03
2023-07-27T21:36:48.781Z,16.02
2023-07-27T21:39:17.069Z,16.04
2023-07-27T21:41:45.285Z,16.05
2023-07-27T21:44:13.525Z,16.08
2023-07-27T21:46:41.688Z,16.08
2023-07-27T21:49:09.450Z,16.20
2023-07-27T21:51:37.462Z,16.13
2023-07-27T21:54:06.550Z,16.11
2023-07-27T21:56:34.871Z,16.10
2023-07-27T21:59:02.870Z,16.14
2023-07-27T22:01:30.947Z,16.16
2023-07-27T22:03:58.697Z,16.13
2023-07-27T22:06:26.755Z,16.12
2023-07-27T22:08:54.686Z,16.12
2023-07-27T22:11:24.084Z,16.12
2023-07-27T22:13:51.831Z,16.14
2023-07-27T22:16:19.942Z,16.19
2023-07-27T22:18:47.780Z,16.18
2023-07-27T22:21:15.900Z,16.22
2023-07-27T22:23:43.708Z,16.23
2023-07-27T22:26:11.825Z,16.24
2023-07-27T22:28:40.875Z,16.27
2023-07-27T22:31:08.751Z,16.24
2023-07-27T22:33:36.851Z,16.23
2023-07-27T22:36:06.570Z,16.24
2023-07-27T22:38:34.410Z,16.22
2023-07-27T22:41:03.388Z,16.20
2023-07-27T22:43:31.161Z,16.22
2023-07-27T22:46:00.589Z,16.29
2023-07-27T22:48:28.894Z,16.27
2023-07-27T22:50:56.760Z,16.23
2023-07-27T22:53:24.801Z,16.20
2023-07-27T22:55:53.158Z,16.21
2023-07-27T22:58:22.423Z,16.26
2023-07-27T23:00:50.217Z,16.24
2023-07-27T23:03:19.583Z,16.27
2023-07-27T23:05:47.285Z,16.24
2023-07-27T23:08:15.545Z,16.27
2023-07-27T23:10:43.426Z,16.26
2023-07-27T23:13:11.468Z,16.23
2023-07-27T23:15:39.607Z,16.25
2023-07-27T23:18:07.730Z,16.24
2023-07-27T23:20:36.886Z,16.27
2023-07-27T23:23:05.319Z,16.19
2023-07-27T23:25:33.157Z,16.24
2023-07-27T23:28:01.952Z,16.29
2023-07-27T23:30:30.712Z,16.27
2023-07-27T23:32:58.825Z,16.27
2023-07-27T23:35:26.609Z,16.25
2023-07-27T23:37:56.043Z,16.27
2023-07-27T23:40:23.839Z,16.30
2023-07-27T23:42:51.887Z,16.25
2023-07-27T23:45:19.730Z,16.25
2023-07-27T23:47:47.620Z,16.26
2023-07-27T23:50:16.106Z,16.29
2023-07-27T23:52:43.833Z,16.29
2023-07-27T23:55:13.366Z,16.24
2023-07-27T23:57:41.089Z,16.24
